Time;durP1;ratioP1;P1;durP2;ratioP2;P2;SDS_P1;SDS_P2;PMS_P1;PMS_P2;Temp;Humidity;BMP_temperature;BMP_pressure;BME280_temperature;BME280_humidity;BME280_pressure;Samples;Min_cycle;Max_cycle;Signal;HPM_P1;HPM_P2
2022/09/08 00:01:47;;;;;;;2.07;1.87;;;;;;;;;;5093538;28;20440;-70
2022/09/08 00:04:14;;;;;;;2.83;2.10;;;;;;;;;;5092266;28;21081;-69
2022/09/08 00:06:41;;;;;;;2.63;2.13;;;;;;;;;;5093296;28;20754;-70
2022/09/08 00:09:09;;;;;;;2.90;2.43;;;;;;;;;;5092057;28;20912;-69
2022/09/08 00:11:36;;;;;;;1.70;1.60;;;;;;;;;;5093206;28;20536;-69
2022/09/08 00:14:07;;;;;;;2.87;1.77;;;;;;;;;;5092728;28;20535;-70
2022/09/08 00:16:35;;;;;;;2.20;1.80;;;;;;;;;;5092066;28;20425;-69
2022/09/08 00:19:02;;;;;;;2.63;1.60;;;;;;;;;;5091839;28;20436;-70
2022/09/08 00:21:29;;;;;;;2.50;1.53;;;;;;;;;;5092793;28;20472;-70
2022/09/08 00:23:57;;;;;;;2.97;1.90;;;;;;;;;;5092293;28;20785;-69
2022/09/08 00:26:24;;;;;;;2.60;1.80;;;;;;;;;;5092551;28;20568;-70
2022/09/08 00:28:51;;;;;;;2.10;1.70;;;;;;;;;;5091570;28;20532;-69
2022/09/08 00:31:20;;;;;;;1.83;1.30;;;;;;;;;;5092771;28;20445;-69
2022/09/08 00:33:47;;;;;;;1.90;1.77;;;;;;;;;;5092495;28;20464;-69
2022/09/08 00:36:15;;;;;;;1.77;1.63;;;;;;;;;;5091821;28;20975;-70
2022/09/08 00:38:42;;;;;;;2.63;2.30;;;;;;;;;;5091971;28;20519;-69
2022/09/08 00:41:11;;;;;;;2.50;1.90;;;;;;;;;;5091561;28;20445;-71
2022/09/08 00:43:39;;;;;;;6.90;2.27;;;;;;;;;;5092271;28;20444;-69
2022/09/08 00:46:21;;;;;;;2.33;2.00;;;;;;;;;;5091603;28;20444;-70
2022/09/08 00:48:52;;;;;;;2.47;1.90;;;;;;;;;;5091940;28;20475;-69
2022/09/08 00:51:20;;;;;;;2.53;1.97;;;;;;;;;;5092082;28;20520;-69
2022/09/08 00:53:48;;;;;;;2.40;2.03;;;;;;;;;;5092603;28;20494;-69
2022/09/08 00:56:15;;;;;;;2.17;1.97;;;;;;;;;;5091241;28;20468;-70
2022/09/08 00:58:42;;;;;;;2.43;1.70;;;;;;;;;;5091574;28;20452;-69
2022/09/08 01:01:09;;;;;;;1.97;1.77;;;;;;;;;;5091515;28;20445;-71
2022/09/08 01:03:40;;;;;;;2.73;2.53;;;;;;;;;;5091888;28;20444;-69
2022/09/08 01:06:11;;;;;;;2.33;2.13;;;;;;;;;;5091392;28;20453;-70
2022/09/08 01:14:14;;;;;;;2.00;1.80;;;;;;;;;;5079551;28;20465;-69
2022/09/08 01:16:42;;;;;;;2.37;2.00;;;;;;;;;;5091854;28;21022;-69
2022/09/08 01:19:14;;;;;;;2.10;1.90;;;;;;;;;;5090882;28;20452;-69
2022/09/08 01:21:46;;;;;;;2.03;1.87;;;;;;;;;;5091349;28;20441;-69
2022/09/08 01:24:26;;;;;;;2.50;2.30;;;;;;;;;;5091015;28;20441;-69
2022/09/08 01:27:14;;;;;;;1.77;1.67;;;;;;;;;;5090683;28;20469;-69
2022/09/08 01:29:44;;;;;;;2.93;2.57;;;;;;;;;;5084879;28;20452;-69
2022/09/08 01:32:11;;;;;;;3.50;2.03;;;;;;;;;;5091187;28;20743;-69
2022/09/08 01:34:39;;;;;;;1.90;1.80;;;;;;;;;;5085994;28;20449;-69
2022/09/08 01:37:06;;;;;;;6.43;2.00;;;;;;;;;;5091073;28;20444;-69
2022/09/08 01:39:33;;;;;;;3.37;1.90;;;;;;;;;;5091229;28;20791;-70
2022/09/08 01:42:00;;;;;;;2.27;2.03;;;;;;;;;;5091196;28;20445;-69
2022/09/08 01:44:28;;;;;;;2.10;1.70;;;;;;;;;;5091150;28;20522;-69
2022/09/08 01:46:56;;;;;;;4.53;2.30;;;;;;;;;;5090786;28;20445;-69
2022/09/08 01:49:23;;;;;;;2.87;2.17;;;;;;;;;;5090882;28;20472;-69
2022/09/08 01:51:51;;;;;;;2.07;1.87;;;;;;;;;;5090882;28;20449;-69
2022/09/08 01:54:18;;;;;;;3.03;2.53;;;;;;;;;;5091260;28;20853;-69
2022/09/08 01:56:45;;;;;;;2.30;2.00;;;;;;;;;;5091211;28;20564;-69
2022/09/08 01:59:12;;;;;;;2.73;2.10;;;;;;;;;;5089683;28;20461;-69
2022/09/08 02:01:39;;;;;;;3.20;2.10;;;;;;;;;;5091502;28;20490;-69
2022/09/08 02:04:08;;;;;;;3.30;2.63;;;;;;;;;;5090089;28;20440;-69
2022/09/08 02:06:35;;;;;;;2.17;1.87;;;;;;;;;;5090771;28;20792;-69
2022/09/08 02:09:02;;;;;;;2.70;1.80;;;;;;;;;;5090198;28;20789;-69
2022/09/08 02:11:29;;;;;;;2.70;2.27;;;;;;;;;;5091173;28;20453;-69
2022/09/08 02:13:56;;;;;;;3.93;2.10;;;;;;;;;;5090238;28;20507;-69
2022/09/08 02:16:24;;;;;;;2.17;1.83;;;;;;;;;;5091202;28;20476;-69
2022/09/08 02:18:53;;;;;;;1.97;1.77;;;;;;;;;;5089609;28;20935;-71
2022/09/08 02:21:23;;;;;;;2.27;1.77;;;;;;;;;;5091237;28;20448;-69
2022/09/08 02:23:50;;;;;;;2.30;1.90;;;;;;;;;;5091020;28;20433;-69
2022/09/08 02:26:19;;;;;;;1.87;1.37;;;;;;;;;;5090604;28;20464;-69
2022/09/08 02:28:46;;;;;;;1.77;1.67;;;;;;;;;;5090661;28;20445;-69
2022/09/08 02:31:13;;;;;;;2.53;1.90;;;;;;;;;;5089804;28;20449;-69
2022/09/08 02:33:41;;;;;;;3.97;1.67;;;;;;;;;;5090737;28;20932;-69
2022/09/08 02:36:08;;;;;;;1.93;1.47;;;;;;;;;;5089735;28;20823;-69
2022/09/08 02:38:37;;;;;;;1.43;1.33;;;;;;;;;;5090382;28;20780;-69
2022/09/08 02:41:04;;;;;;;1.37;1.10;;;;;;;;;;5093424;28;20440;-69
2022/09/08 02:43:31;;;;;;;1.43;1.20;;;;;;;;;;5095194;28;20445;-69
2022/09/08 02:46:03;;;;;;;1.43;1.10;;;;;;;;;;5094202;28;20445;-68
2022/09/08 02:48:31;;;;;;;1.23;1.13;;;;;;;;;;5086478;28;20935;-69
2022/09/08 02:50:59;;;;;;;1.57;1.27;;;;;;;;;;5093783;28;20471;-69
2022/09/08 02:53:26;;;;;;;1.77;1.67;;;;;;;;;;5094331;28;20952;-69
2022/09/08 02:55:55;;;;;;;1.90;1.07;;;;;;;;;;5093774;28;20503;-69
2022/09/08 02:58:22;;;;;;;1.13;0.90;;;;;;;;;;5094174;28;20440;-70
2022/09/08 03:00:49;;;;;;;1.70;1.33;;;;;;;;;;5094228;28;20939;-69
2022/09/08 03:03:16;;;;;;;0.97;0.90;;;;;;;;;;5093881;28;20518;-69
2022/09/08 03:05:43;;;;;;;2.33;1.30;;;;;;;;;;5094106;28;20793;-69
2022/09/08 03:08:12;;;;;;;1.87;1.30;;;;;;;;;;5093375;28;20448;-70
2022/09/08 03:10:39;;;;;;;1.73;1.10;;;;;;;;;;5094419;28;20440;-69
2022/09/08 03:13:07;;;;;;;1.87;1.43;;;;;;;;;;5087821;28;20884;-69
2022/09/08 03:15:34;;;;;;;1.60;1.10;;;;;;;;;;5094043;28;20468;-69
2022/09/08 03:18:04;;;;;;;2.70;1.77;;;;;;;;;;5093681;28;20440;-69
2022/09/08 03:20:31;;;;;;;1.83;1.00;;;;;;;;;;5093478;28;20802;-69
2022/09/08 03:22:59;;;;;;;1.10;0.93;;;;;;;;;;5093202;28;20920;-69
2022/09/08 03:25:26;;;;;;;1.27;1.17;;;;;;;;;;5093754;28;20445;-69
2022/09/08 03:27:54;;;;;;;1.30;1.20;;;;;;;;;;5093377;28;20472;-69
2022/09/08 03:30:22;;;;;;;1.07;0.77;;;;;;;;;;5093459;28;20440;-69
2022/09/08 03:32:50;;;;;;;1.10;0.93;;;;;;;;;;5093913;28;20441;-69
2022/09/08 03:35:18;;;;;;;1.50;1.10;;;;;;;;;;5097683;28;20452;-68
2022/09/08 03:37:45;;;;;;;1.40;1.00;;;;;;;;;;5097906;28;20463;-68
2022/09/08 03:40:13;;;;;;;1.77;1.00;;;;;;;;;;5096288;28;20798;-69
2022/09/08 03:42:41;;;;;;;1.30;0.90;;;;;;;;;;5098272;28;20439;-68
2022/09/08 03:45:09;;;;;;;2.43;1.20;;;;;;;;;;5097530;28;20445;-69
2022/09/08 03:47:38;;;;;;;1.50;0.80;;;;;;;;;;5092940;28;20441;-70
2022/09/08 03:50:06;;;;;;;1.03;0.80;;;;;;;;;;5087117;28;20442;-69
2022/09/08 03:52:33;;;;;;;1.00;0.90;;;;;;;;;;5088342;28;20775;-69
2022/09/08 03:55:00;;;;;;;1.00;0.70;;;;;;;;;;5092771;28;20447;-68
2022/09/08 03:57:28;;;;;;;1.17;0.83;;;;;;;;;;5093252;28;20559;-68
2022/09/08 03:59:57;;;;;;;1.07;0.73;;;;;;;;;;5092575;28;20782;-68
2022/09/08 04:02:24;;;;;;;1.30;0.77;;;;;;;;;;5093186;28;20785;-68
2022/09/08 04:04:53;;;;;;;1.63;1.00;;;;;;;;;;5092722;28;20453;-69
2022/09/08 04:07:21;;;;;;;0.80;0.70;;;;;;;;;;5092670;28;20456;-69
2022/09/08 04:09:49;;;;;;;1.00;0.70;;;;;;;;;;5092597;28;20453;-70
2022/09/08 04:12:16;;;;;;;1.80;0.77;;;;;;;;;;5091762;28;20437;-69
2022/09/08 04:14:44;;;;;;;1.80;0.73;;;;;;;;;;5092486;28;20467;-69
2022/09/08 04:17:11;;;;;;;0.80;0.60;;;;;;;;;;5092422;28;20477;-69
2022/09/08 04:19:38;;;;;;;2.37;1.13;;;;;;;;;;5092579;28;20452;-69
2022/09/08 04:22:06;;;;;;;1.87;1.00;;;;;;;;;;5092226;28;20460;-69
2022/09/08 04:24:34;;;;;;;1.10;0.80;;;;;;;;;;5093130;28;20445;-68
2022/09/08 04:27:01;;;;;;;1.60;0.83;;;;;;;;;;5092257;28;20478;-68
2022/09/08 04:29:28;;;;;;;0.70;0.50;;;;;;;;;;5092254;28;20445;-69
2022/09/08 04:31:55;;;;;;;2.33;1.27;;;;;;;;;;5092204;28;20452;-69
2022/09/08 04:34:22;;;;;;;1.37;1.03;;;;;;;;;;5092864;28;20449;-69
2022/09/08 04:36:49;;;;;;;1.87;1.00;;;;;;;;;;5092290;28;20572;-68
2022/09/08 04:39:20;;;;;;;1.13;0.90;;;;;;;;;;5091988;28;20523;-69
2022/09/08 04:41:47;;;;;;;1.50;0.80;;;;;;;;;;5092178;28;20928;-69
2022/09/08 04:44:14;;;;;;;1.37;0.83;;;;;;;;;;5092145;28;20444;-69
2022/09/08 04:46:41;;;;;;;1.37;0.80;;;;;;;;;;5092013;28;20803;-68
2022/09/08 04:49:08;;;;;;;3.20;0.90;;;;;;;;;;5091454;28;20453;-68
2022/09/08 04:51:42;;;;;;;1.43;0.73;;;;;;;;;;5092123;28;20448;-68
2022/09/08 04:54:25;;;;;;;1.27;0.80;;;;;;;;;;5092531;28;20429;-69
2022/09/08 04:56:53;;;;;;;1.00;0.70;;;;;;;;;;5090440;28;20476;-67
2022/09/08 04:59:20;;;;;;;1.77;1.00;;;;;;;;;;5089763;28;20527;-69
2022/09/08 05:01:47;;;;;;;2.10;1.57;;;;;;;;;;5092318;28;20467;-69
2022/09/08 05:04:14;;;;;;;1.27;0.80;;;;;;;;;;5090827;28;20452;-69
2022/09/08 05:06:41;;;;;;;1.07;0.60;;;;;;;;;;5092316;28;20881;-69
2022/09/08 05:09:08;;;;;;;0.90;0.60;;;;;;;;;;5091099;28;20453;-69
2022/09/08 05:11:37;;;;;;;0.93;0.70;;;;;;;;;;5091202;28;20924;-68
2022/09/08 05:14:04;;;;;;;1.40;0.90;;;;;;;;;;5091570;28;20440;-69
2022/09/08 05:16:33;;;;;;;1.10;0.87;;;;;;;;;;5090181;28;20483;-69
2022/09/08 05:19:01;;;;;;;1.20;0.80;;;;;;;;;;5090620;28;20959;-68
2022/09/08 05:21:29;;;;;;;1.10;0.90;;;;;;;;;;5089374;28;20441;-68
2022/09/08 05:23:56;;;;;;;0.83;0.60;;;;;;;;;;5089085;28;20924;-68
2022/09/08 05:26:24;;;;;;;2.23;0.67;;;;;;;;;;5089696;28;20475;-68
2022/09/08 05:28:54;;;;;;;0.80;0.50;;;;;;;;;;5089002;28;20449;-71
2022/09/08 05:31:22;;;;;;;0.90;0.73;;;;;;;;;;5089627;28;20457;-68
2022/09/08 05:33:50;;;;;;;0.83;0.60;;;;;;;;;;5091625;28;20452;-67
2022/09/08 05:36:18;;;;;;;1.33;1.07;;;;;;;;;;5083229;28;20572;-67
2022/09/08 05:38:45;;;;;;;2.20;0.93;;;;;;;;;;5082088;28;20452;-68
2022/09/08 05:41:12;;;;;;;0.93;0.60;;;;;;;;;;5090895;28;20518;-68
2022/09/08 05:43:39;;;;;;;0.90;0.60;;;;;;;;;;5091488;28;20441;-67
2022/09/08 05:46:09;;;;;;;0.90;0.70;;;;;;;;;;5090225;28;20449;-69
2022/09/08 05:48:36;;;;;;;2.80;1.00;;;;;;;;;;5091271;28;20441;-68
2022/09/08 05:51:03;;;;;;;2.10;0.80;;;;;;;;;;5090842;28;20441;-69
2022/09/08 05:53:30;;;;;;;0.80;0.60;;;;;;;;;;5091530;28;20440;-68
2022/09/08 05:55:59;;;;;;;2.00;1.37;;;;;;;;;;5090339;28;20452;-69
2022/09/08 05:58:27;;;;;;;1.30;0.70;;;;;;;;;;5091394;28;20455;-68
2022/09/08 06:00:54;;;;;;;1.00;0.73;;;;;;;;;;5090947;28;20878;-69
2022/09/08 06:03:23;;;;;;;5.13;0.90;;;;;;;;;;5091403;28;20444;-70
2022/09/08 06:05:50;;;;;;;2.13;0.90;;;;;;;;;;5090532;28;20812;-69
2022/09/08 06:08:20;;;;;;;1.17;0.70;;;;;;;;;;5091396;28;20481;-69
2022/09/08 06:10:49;;;;;;;1.67;0.73;;;;;;;;;;5090998;28;20830;-69
2022/09/08 06:13:16;;;;;;;1.37;0.83;;;;;;;;;;5091149;28;20453;-68
2022/09/08 06:15:43;;;;;;;1.03;0.70;;;;;;;;;;5093679;28;20470;-70
2022/09/08 06:18:10;;;;;;;2.13;1.00;;;;;;;;;;5095038;28;20481;-70
2022/09/08 06:20:39;;;;;;;1.97;0.73;;;;;;;;;;5095328;28;20788;-70
2022/09/08 06:23:06;;;;;;;1.40;0.90;;;;;;;;;;5094488;28;20449;-70
2022/09/08 06:25:39;;;;;;;1.03;0.70;;;;;;;;;;5095358;28;20447;-70
2022/09/08 06:28:11;;;;;;;0.80;0.60;;;;;;;;;;5094807;28;20437;-70
2022/09/08 06:30:39;;;;;;;1.10;0.83;;;;;;;;;;5095412;28;20798;-70
2022/09/08 06:33:10;;;;;;;1.50;1.00;;;;;;;;;;5094519;28;20449;-70
2022/09/08 06:35:43;;;;;;;1.83;0.90;;;;;;;;;;5094912;28;20800;-72
2022/09/08 06:38:14;;;;;;;0.90;0.70;;;;;;;;;;5094544;28;20472;-70
2022/09/08 06:40:42;;;;;;;1.23;1.13;;;;;;;;;;5095069;28;20856;-70
2022/09/08 06:43:14;;;;;;;1.30;0.53;;;;;;;;;;5094380;28;20459;-70
2022/09/08 06:45:43;;;;;;;1.63;0.80;;;;;;;;;;5094642;28;20882;-70
2022/09/08 06:48:26;;;;;;;0.80;0.60;;;;;;;;;;5094650;28;20456;-70
2022/09/08 06:50:58;;;;;;;1.43;0.97;;;;;;;;;;5101510;28;20441;-70
2022/09/08 06:53:26;;;;;;;1.30;1.00;;;;;;;;;;5102613;28;20932;-69
2022/09/08 06:55:54;;;;;;;1.13;0.90;;;;;;;;;;5100212;28;20463;-70
2022/09/08 06:58:24;;;;;;;0.93;0.70;;;;;;;;;;5099821;28;20550;-69
2022/09/08 07:00:53;;;;;;;0.80;0.70;;;;;;;;;;5097002;28;20443;-69
2022/09/08 07:03:27;;;;;;;0.70;0.57;;;;;;;;;;5095177;28;20449;-70
2022/09/08 07:05:58;;;;;;;0.83;0.53;;;;;;;;;;5093074;28;20470;-70
2022/09/08 07:08:30;;;;;;;0.87;0.73;;;;;;;;;;5094566;28;20449;-70
2022/09/08 07:10:59;;;;;;;0.80;0.60;;;;;;;;;;5094025;28;20805;-70
2022/09/08 07:13:30;;;;;;;1.87;0.80;;;;;;;;;;5093917;28;20460;-70
2022/09/08 07:16:03;;;;;;;0.87;0.63;;;;;;;;;;5093692;28;20448;-69
2022/09/08 07:18:34;;;;;;;0.93;0.63;;;;;;;;;;5094080;28;20481;-69
2022/09/08 07:21:08;;;;;;;0.90;0.50;;;;;;;;;;5093649;28;20445;-69
2022/09/08 07:23:37;;;;;;;0.93;0.60;;;;;;;;;;5094136;28;20452;-70
2022/09/08 07:26:06;;;;;;;1.13;0.73;;;;;;;;;;5092911;28;20480;-70
2022/09/08 07:28:35;;;;;;;1.30;1.00;;;;;;;;;;5094005;28;20455;-70
2022/09/08 07:31:03;;;;;;;1.03;0.53;;;;;;;;;;5093598;28;20806;-70
2022/09/08 07:33:32;;;;;;;1.47;0.70;;;;;;;;;;5093816;28;20832;-70
2022/09/08 07:36:03;;;;;;;1.07;0.63;;;;;;;;;;5092684;28;20946;-70
2022/09/08 07:38:36;;;;;;;2.40;0.70;;;;;;;;;;5094008;28;20469;-70
2022/09/08 07:41:05;;;;;;;1.23;0.67;;;;;;;;;;5093176;28;20533;-70
2022/09/08 07:43:32;;;;;;;1.10;0.63;;;;;;;;;;5093924;28;20475;-70
2022/09/08 07:46:05;;;;;;;1.33;0.80;;;;;;;;;;5092649;28;20445;-70
2022/09/08 07:48:37;;;;;;;1.33;0.70;;;;;;;;;;5093825;28;20444;-69
2022/09/08 07:51:08;;;;;;;1.10;0.70;;;;;;;;;;5092960;28;20472;-69
2022/09/08 07:53:47;;;;;;;1.00;0.57;;;;;;;;;;5093972;28;20442;-69
2022/09/08 07:56:15;;;;;;;1.40;0.90;;;;;;;;;;5092558;28;20433;-69
2022/09/08 07:58:46;;;;;;;1.00;0.70;;;;;;;;;;5093378;28;20571;-70
2022/09/08 08:01:19;;;;;;;1.00;0.60;;;;;;;;;;5092870;28;20455;-70
2022/09/08 08:03:51;;;;;;;2.40;1.47;;;;;;;;;;5092418;28;20441;-69
2022/09/08 08:06:20;;;;;;;0.90;0.50;;;;;;;;;;5092309;28;20452;-69
2022/09/08 08:08:53;;;;;;;1.83;0.70;;;;;;;;;;5090821;28;20456;-69
2022/09/08 08:11:25;;;;;;;0.87;0.63;;;;;;;;;;5093028;28;20469;-70
2022/09/08 08:14:01;;;;;;;0.90;0.50;;;;;;;;;;5091729;28;20449;-72
2022/09/08 08:16:32;;;;;;;0.70;0.50;;;;;;;;;;5092265;28;20628;-69
2022/09/08 08:19:03;;;;;;;0.73;0.47;;;;;;;;;;5092017;28;20492;-69
2022/09/08 08:21:33;;;;;;;0.70;0.47;;;;;;;;;;5091667;28;20460;-70
2022/09/08 08:24:15;;;;;;;0.73;0.60;;;;;;;;;;5083001;28;20952;-69
2022/09/08 08:26:45;;;;;;;0.80;0.50;;;;;;;;;;5091425;28;20999;-70
2022/09/08 08:29:18;;;;;;;0.93;0.83;;;;;;;;;;5099949;28;20472;-70
2022/09/08 08:31:48;;;;;;;0.90;0.70;;;;;;;;;;5091806;28;20448;-69
2022/09/08 08:34:19;;;;;;;1.13;0.63;;;;;;;;;;5091167;28;20445;-70
2022/09/08 08:36:47;;;;;;;1.67;0.60;;;;;;;;;;5085006;28;20447;-70
2022/09/08 08:39:17;;;;;;;2.63;0.70;;;;;;;;;;5091256;28;20452;-70
2022/09/08 08:41:53;;;;;;;0.93;0.70;;;;;;;;;;5091380;28;21941;-69
2022/09/08 08:44:31;;;;;;;1.33;0.80;;;;;;;;;;5091749;28;20449;-70
2022/09/08 08:47:09;;;;;;;0.80;0.60;;;;;;;;;;5091084;28;20444;-69
2022/09/08 08:49:54;;;;;;;1.13;0.70;;;;;;;;;;5090161;28;20464;-69
2022/09/08 08:52:28;;;;;;;0.70;0.50;;;;;;;;;;5091020;28;20445;-70
2022/09/08 08:55:04;;;;;;;0.93;0.80;;;;;;;;;;5100516;28;20445;-69
2022/09/08 08:57:43;;;;;;;0.90;0.80;;;;;;;;;;5090765;28;20521;-70
2022/09/08 09:00:21;;;;;;;0.70;0.57;;;;;;;;;;5096097;28;20445;-70
2022/09/08 09:03:03;;;;;;;0.90;0.60;;;;;;;;;;5078801;28;20448;-69
2022/09/08 09:05:48;;;;;;;2.00;0.70;;;;;;;;;;5090608;28;20467;-70
2022/09/08 09:08:21;;;;;;;0.93;0.60;;;;;;;;;;5091106;28;20449;-70
2022/09/08 09:10:51;;;;;;;0.70;0.50;;;;;;;;;;5084324;28;20444;-69
2022/09/08 09:13:36;;;;;;;0.73;0.60;;;;;;;;;;5091564;28;20801;-69
2022/09/08 09:16:18;;;;;;;1.63;1.13;;;;;;;;;;5079515;28;20445;-69
2022/09/08 09:19:00;;;;;;;0.83;0.60;;;;;;;;;;5088286;28;20484;-70
2022/09/08 09:21:37;;;;;;;2.50;0.60;;;;;;;;;;5090800;28;20461;-70
2022/09/08 09:24:13;;;;;;;1.10;0.60;;;;;;;;;;5090821;28;20489;-70
2022/09/08 09:26:46;;;;;;;0.90;0.60;;;;;;;;;;5090043;28;20476;-70
2022/09/08 09:29:15;;;;;;;0.70;0.50;;;;;;;;;;5090494;28;20461;-70
2022/09/08 09:32:09;;;;;;;1.30;0.63;;;;;;;;;;5091024;28;20539;-70
2022/09/08 09:35:00;;;;;;;2.03;1.00;;;;;;;;;;5090648;28;20921;-70
2022/09/08 09:37:35;;;;;;;0.80;0.60;;;;;;;;;;5090540;28;20473;-70
2022/09/08 09:40:10;;;;;;;0.73;0.70;;;;;;;;;;5076899;28;20457;-70
2022/09/08 09:42:47;;;;;;;0.97;0.70;;;;;;;;;;5090668;28;20549;-69
2022/09/08 09:45:41;;;;;;;1.27;0.77;;;;;;;;;;5092301;28;20460;-70
2022/09/08 09:48:25;;;;;;;1.00;0.70;;;;;;;;;;5075667;28;20710;-70
2022/09/08 09:51:02;;;;;;;1.20;0.90;;;;;;;;;;5086764;28;20497;-70
2022/09/08 09:53:42;;;;;;;1.53;0.70;;;;;;;;;;5090484;28;20805;-70
2022/09/08 09:56:24;;;;;;;1.13;0.70;;;;;;;;;;5089812;28;20443;-70
2022/09/08 09:59:10;;;;;;;1.00;0.57;;;;;;;;;;5091933;28;20475;-70
2022/09/08 10:01:49;;;;;;;1.10;0.60;;;;;;;;;;5082337;28;20928;-70
2022/09/08 10:04:31;;;;;;;1.07;0.60;;;;;;;;;;5089756;28;20484;-70
2022/09/08 10:07:15;;;;;;;0.80;0.53;;;;;;;;;;5089666;28;20453;-69
2022/09/08 10:09:54;;;;;;;1.20;0.60;;;;;;;;;;5097752;28;20457;-70
2022/09/08 10:12:36;;;;;;;1.00;0.80;;;;;;;;;;5090207;28;20444;-70
2022/09/08 10:15:17;;;;;;;1.23;0.90;;;;;;;;;;5045939;28;20962;-69
2022/09/08 10:18:00;;;;;;;0.80;0.50;;;;;;;;;;5090329;28;20486;-71
2022/09/08 10:20:44;;;;;;;0.77;0.70;;;;;;;;;;5092768;28;20958;-69
2022/09/08 10:23:30;;;;;;;0.90;0.70;;;;;;;;;;5095350;28;21178;-70
2022/09/08 10:26:11;;;;;;;2.90;0.70;;;;;;;;;;5089416;28;20539;-69
2022/09/08 10:29:06;;;;;;;0.97;0.50;;;;;;;;;;5090248;28;20527;-70
2022/09/08 10:31:54;;;;;;;0.90;0.60;;;;;;;;;;5040419;28;20975;-70
2022/09/08 10:34:40;;;;;;;1.73;0.73;;;;;;;;;;5084630;28;20469;-71
2022/09/08 10:37:16;;;;;;;1.30;0.93;;;;;;;;;;5078128;28;20466;-69
2022/09/08 10:39:47;;;;;;;0.83;0.67;;;;;;;;;;5090782;28;21009;-70
2022/09/08 10:42:26;;;;;;;1.20;0.60;;;;;;;;;;5080615;28;20525;-70
2022/09/08 10:45:03;;;;;;;0.97;0.60;;;;;;;;;;5077515;28;20797;-70
2022/09/08 10:47:45;;;;;;;0.70;0.50;;;;;;;;;;5090455;28;20837;-70
2022/09/08 10:50:23;;;;;;;2.23;1.00;;;;;;;;;;5090300;28;20860;-70
2022/09/08 10:52:52;;;;;;;1.03;0.53;;;;;;;;;;5090464;28;20455;-70
2022/09/08 10:55:35;;;;;;;1.73;0.57;;;;;;;;;;5090175;28;20445;-70
2022/09/08 10:58:14;;;;;;;0.80;0.60;;;;;;;;;;5089954;28;20522;-70
2022/09/08 11:00:45;;;;;;;1.47;0.87;;;;;;;;;;5091261;28;20505;-71
2022/09/08 11:03:32;;;;;;;0.90;0.70;;;;;;;;;;5094037;28;20444;-70
2022/09/08 11:06:03;;;;;;;0.63;0.53;;;;;;;;;;5080233;28;20461;-70
2022/09/08 11:08:44;;;;;;;1.60;0.70;;;;;;;;;;5094314;28;20455;-70
2022/09/08 11:11:30;;;;;;;3.33;1.10;;;;;;;;;;5093671;28;21060;-70
2022/09/08 11:14:01;;;;;;;1.57;0.60;;;;;;;;;;5093827;28;20454;-70
2022/09/08 11:16:49;;;;;;;1.20;0.60;;;;;;;;;;5093771;28;20443;-70
2022/09/08 11:19:49;;;;;;;1.00;0.60;;;;;;;;;;5059645;28;20830;-70
2022/09/08 11:22:31;;;;;;;2.63;0.83;;;;;;;;;;4991583;28;20441;-70
2022/09/08 11:25:04;;;;;;;0.80;0.60;;;;;;;;;;4991522;28;20461;-70
2022/09/08 11:27:37;;;;;;;2.73;0.50;;;;;;;;;;5051444;28;20979;-70
2022/09/08 11:30:13;;;;;;;1.20;0.70;;;;;;;;;;5093495;28;20453;-70
2022/09/08 11:32:45;;;;;;;1.17;0.90;;;;;;;;;;5093586;28;20932;-70
2022/09/08 11:35:38;;;;;;;0.90;0.60;;;24.30;18.50;;;;;;5093133;28;20460;-71
2022/09/08 11:38:38;;;;;;;2.03;1.00;;;22.70;99.90;;;;;;5089268;28;20477;-70
2022/09/08 11:41:38;;;;;;;1.30;1.00;;;22.50;99.90;;;;;;5092874;28;20470;-70
2022/09/08 11:44:35;;;;;;;0.80;0.60;;;22.50;99.90;;;;;;5092818;28;20445;-70
2022/09/08 11:47:42;;;;;;;0.90;0.70;;;22.30;99.90;;;;;;5090372;28;20453;-71
2022/09/08 11:50:37;;;;;;;2.57;0.60;;;21.90;99.90;;;;;;5092762;28;20452;-71
2022/09/08 11:53:30;;;;;;;0.80;0.60;;;21.90;99.90;;;;;;5080229;28;20440;-70
2022/09/08 11:56:25;;;;;;;1.20;0.90;;;21.70;99.90;;;;;;5092463;28;20468;-70
2022/09/08 11:59:09;;;;;;;1.30;0.60;;;21.50;99.90;;;;;;5092715;28;20484;-72
2022/09/08 12:01:42;;;;;;;1.00;0.70;;;21.90;99.90;;;;;;5093404;28;20482;-70
2022/09/08 12:04:27;;;;;;;0.70;0.50;;;21.80;99.90;;;;;;5092352;28;20464;-70
2022/09/08 12:07:33;;;;;;;1.20;0.70;;;21.50;99.90;;;;;;5091856;28;20441;-70
2022/09/08 12:10:36;;;;;;;2.93;0.80;;;21.40;99.90;;;;;;5092634;28;20444;-71
2022/09/08 12:13:14;;;;;;;1.00;0.50;;;21.60;99.90;;;;;;5091304;28;20452;-70
2022/09/08 12:16:01;;;;;;;1.17;1.00;;;21.80;99.90;;;;;;5079623;28;20897;-70
2022/09/08 12:18:45;;;;;;;1.27;0.70;;;21.90;99.90;;;;;;5092609;28;20500;-70
2022/09/08 12:21:39;;;;;;;1.40;0.70;;;21.80;99.90;;;;;;5092250;28;20445;-70
2022/09/08 12:24:19;;;;;;;1.20;0.60;;;21.90;99.90;;;;;;5081761;28;20457;-70
2022/09/08 12:26:58;;;;;;;2.33;0.80;;;21.80;99.90;;;;;;5092156;28;20986;-70
2022/09/08 12:29:52;;;;;;;3.47;0.70;;;21.70;99.90;;;;;;5092569;28;20452;-70
2022/09/08 12:32:41;;;;;;;2.20;0.77;;;21.60;99.90;;;;;;5092988;28;20452;-70
2022/09/08 12:35:33;;;;;;;0.97;0.70;;;21.60;99.90;;;;;;5091884;28;20540;-70
2022/09/08 12:38:34;;;;;;;0.73;0.50;;;21.80;99.90;;;;;;5091802;28;20433;-70
2022/09/08 12:41:34;;;;;;;1.00;0.70;;;21.70;99.90;;;;;;5092102;28;20449;-70
2022/09/08 12:44:11;;;;;;;1.13;0.87;;;21.80;99.90;;;;;;5091693;28;20449;-71
2022/09/08 12:46:53;;;;;;;4.00;1.13;;;22.10;99.90;;;;;;5091906;28;20440;-69
2022/09/08 12:49:51;;;;;;;1.93;0.90;;;23.00;99.90;;;;;;5092567;28;20461;-70
2022/09/08 12:52:32;;;;;;;0.80;0.60;;;23.00;99.90;;;;;;5092406;28;20452;-70
2022/09/08 12:55:06;;;;;;;1.07;0.77;;;23.00;99.90;;;;;;5091190;28;20451;-71
2022/09/08 12:57:54;;;;;;;1.20;0.60;;;22.90;99.90;;;;;;5092290;28;20963;-70
2022/09/08 13:00:25;;;;;;;1.37;0.70;;;22.80;99.90;;;;;;5092359;28;20473;-70
2022/09/08 13:03:18;;;;;;;2.03;0.60;;;22.80;99.90;;;;;;5091841;28;20437;-73
2022/09/08 13:06:13;;;;;;;1.60;0.60;;;22.60;99.90;;;;;;5091285;28;20449;-70
2022/09/08 13:08:56;;;;;;;1.47;0.87;;;22.40;99.90;;;;;;5049317;28;20452;-70
2022/09/08 13:11:40;;;;;;;1.30;0.73;;;22.50;99.90;;;;;;5091943;28;20457;-71
2022/09/08 13:14:09;;;;;;;0.80;0.63;;;22.70;99.90;;;;;;5078851;28;20907;-70
2022/09/08 13:16:46;;;;;;;0.73;0.50;;;23.10;99.90;;;;;;5091320;28;20452;-70
2022/09/08 13:19:26;;;;;;;1.07;0.60;;;23.20;99.90;;;;;;5091395;28;20472;-71
2022/09/08 13:22:14;;;;;;;1.30;0.63;;;23.20;99.90;;;;;;5090956;28;20444;-71
2022/09/08 13:24:49;;;;;;;1.03;0.73;;;23.00;99.90;;;;;;5091803;28;20448;-71
2022/09/08 13:27:29;;;;;;;0.80;0.60;;;22.90;99.90;;;;;;5090848;28;20508;-71
2022/09/08 13:30:08;;;;;;;1.83;0.73;;;22.90;99.90;;;;;;5091058;28;20471;-71
2022/09/08 13:33:03;;;;;;;1.10;0.70;;;23.00;99.90;;;;;;5091280;28;20440;-71
2022/09/08 13:36:04;;;;;;;1.60;0.93;;;23.00;99.90;;;;;;5063610;28;20448;-71
2022/09/08 13:38:57;;;;;;;1.53;0.60;;;22.80;99.90;;;;;;5078991;28;20920;-70
2022/09/08 13:41:40;;;;;;;0.83;0.70;;;22.80;99.90;;;;;;5064758;28;20453;-70
2022/09/08 13:44:24;;;;;;;1.80;1.00;;;23.00;99.90;;;;;;5090789;28;20441;-71
2022/09/08 13:47:09;;;;;;;1.80;0.80;;;23.20;99.90;;;;;;5091183;28;20441;-70
2022/09/08 13:49:54;;;;;;;0.60;0.50;;;23.50;99.90;;;;;;5091254;28;20457;-71
2022/09/08 13:52:46;;;;;;;1.10;0.93;;;23.70;99.90;;;;;;5091140;28;20447;-70
2022/09/08 13:55:40;;;;;;;2.13;0.77;;;23.80;99.90;;;;;;5090303;28;20496;-70
2022/09/08 13:58:28;;;;;;;1.47;0.50;;;24.00;98.10;;;;;;5060444;28;20924;-71
2022/09/08 14:01:06;;;;;;;0.73;0.63;;;24.10;97.60;;;;;;5090187;28;20512;-71
2022/09/08 14:03:36;;;;;;;2.00;1.03;;;24.20;95.20;;;;;;5091354;28;20445;-71
2022/09/08 14:06:10;;;;;;;1.20;0.57;;;24.20;91.50;;;;;;5090016;28;20481;-70
2022/09/08 14:08:48;;;;;;;0.70;0.50;;;23.80;93.70;;;;;;5090965;28;20444;-71
2022/09/08 14:11:29;;;;;;;0.73;0.60;;;24.20;93.90;;;;;;5090314;28;20436;-71
2022/09/08 14:14:37;;;;;;;1.20;0.67;;;24.40;92.50;;;;;;5090093;28;20468;-71
2022/09/08 14:17:08;;;;;;;1.00;0.80;;;24.50;81.80;;;;;;5089721;28;20800;-70
2022/09/08 14:19:53;;;;;;;3.57;0.70;;;24.50;65.80;;;;;;5090649;28;20491;-71
2022/09/08 14:22:30;;;;;;;2.30;0.73;;;24.50;54.20;;;;;;5090691;28;20449;-70
2022/09/08 14:25:03;;;;;;;1.80;0.70;;;24.40;48.70;;;;;;5089871;28;21372;-70
2022/09/08 14:27:51;;;;;;;1.73;0.70;;;24.10;53.30;;;;;;5090602;28;20481;-70
2022/09/08 14:30:21;;;;;;;1.53;0.53;;;23.90;56.40;;;;;;5077963;28;20487;-70
2022/09/08 14:33:12;;;;;;;0.80;0.60;;;23.80;56.80;;;;;;5090884;28;20536;-70
2022/09/08 14:35:45;;;;;;;1.10;0.70;;;23.70;57.20;;;;;;5091671;28;20459;-70
2022/09/08 14:38:48;;;;;;;0.70;0.60;;;23.60;61.30;;;;;;5094255;28;20453;-70
2022/09/08 14:41:34;;;;;;;1.00;0.60;;;23.50;63.60;;;;;;5094157;28;20614;-70
2022/09/08 14:44:05;;;;;;;0.70;0.50;;;23.20;68.70;;;;;;5094003;28;20924;-70
2022/09/08 14:46:51;;;;;;;1.83;0.87;;;23.00;76.20;;;;;;5094173;28;20440;-70
2022/09/08 14:49:39;;;;;;;0.70;0.60;;;22.70;81.30;;;;;;5094733;28;20452;-69
2022/09/08 14:52:16;;;;;;;0.93;0.77;;;22.70;82.60;;;;;;5094012;28;20452;-70
2022/09/08 14:54:52;;;;;;;1.10;0.77;;;22.80;91.40;;;;;;5081696;28;20440;-70
2022/09/08 14:57:27;;;;;;;1.27;0.60;;;22.60;93.70;;;;;;5094717;28;20440;-70
2022/09/08 15:00:20;;;;;;;1.07;0.90;;;22.30;94.00;;;;;;5093460;28;20468;-70
2022/09/08 15:02:49;;;;;;;1.13;0.60;;;;;;;;;;5094215;28;20485;-69
2022/09/08 15:05:18;;;;;;;1.03;0.50;;;;;;;;;;5093149;28;20924;-70